Guadassuar, Spain
Current Conditions -  °F | °C
As of 12:00 AM on Friday 26 Dec 2014 (Local Time) from LEVC Reporting Station
Clear Clear  
Wind Chill: 43°   Ceiling: Unl
Heat Index: 43°   Visibility: 6mi
Dew Point: 39°   Wind: 3mph
Humidity: 87%   Direction: 310°NW
Pressure: 30.39"   Gusts: NA
Location:  39.18°N, 0.47°W
Report Text: LEVC 252300Z 31003KT CAVOK 06/04 Q1029 NOSIG
Loading
Personal Weather Stations






























Interactive Weather Map New forecast layout! Learn more

10-Day Weather Forecast

Advertisements
Track Severe Weather on mobile